Time;durP1;ratioP1;P1;durP2;ratioP2;P2;SDS_P1;SDS_P2;PMS_P1;PMS_P2;Temp;Humidity;BMP_temperature;BMP_pressure;BME280_temperature;BME280_humidity;BME280_pressure;Samples;Min_cycle;Max_cycle;Signal;HPM_P1;HPM_P2
2023/01/23 00:00:37;;;;;;;;;;;19.10;42.10;;;;;;6046819;29;19924;-59
2023/01/23 00:03:38;;;;;;;;;;;19.10;41.90;;;;;;6038433;29;19952;-59
2023/01/23 00:06:40;;;;;;;;;;;18.90;41.90;;;;;;6043870;29;19924;-59
2023/01/23 00:09:41;;;;;;;;;;;19.60;42.30;;;;;;6048648;29;19978;-59
2023/01/23 00:12:43;;;;;;;;;;;19.30;42.10;;;;;;6049591;29;20361;-60
2023/01/23 00:15:44;;;;;;;;;;;18.90;42.00;;;;;;6049410;29;19930;-60
2023/01/23 00:18:46;;;;;;;;;;;19.50;42.10;;;;;;6047294;29;20258;-60
2023/01/23 00:21:47;;;;;;;;;;;19.60;42.30;;;;;;6043118;29;19931;-60
2023/01/23 00:24:49;;;;;;;;;;;19.00;42.10;;;;;;6044642;29;19971;-60
2023/01/23 00:27:50;;;;;;;;;;;19.00;42.10;;;;;;6045075;29;20004;-60
2023/01/23 00:30:52;;;;;;;;;;;18.90;41.90;;;;;;6047005;29;19950;-60
2023/01/23 00:33:54;;;;;;;;;;;19.10;42.20;;;;;;6044380;29;19924;-60
2023/01/23 00:36:56;;;;;;;;;;;19.00;41.90;;;;;;6050027;29;19998;-60
2023/01/23 00:39:58;;;;;;;;;;;19.00;42.10;;;;;;6045086;29;19949;-59
2023/01/23 00:42:59;;;;;;;;;;;18.90;42.20;;;;;;6040031;29;19924;-60
2023/01/23 00:46:01;;;;;;;;;;;19.20;42.10;;;;;;6050728;29;19912;-59
2023/01/23 00:49:02;;;;;;;;;;;18.90;42.00;;;;;;6046113;29;19924;-60
2023/01/23 00:52:04;;;;;;;;;;;19.40;42.00;;;;;;6051722;29;19924;-60
2023/01/23 00:55:05;;;;;;;;;;;19.10;42.20;;;;;;6047618;29;19928;-60
2023/01/23 00:58:08;;;;;;;;;;;19.40;42.10;;;;;;6045553;29;19972;-60
2023/01/23 01:01:10;;;;;;;;;;;19.40;42.40;;;;;;6048351;29;19924;-60
2023/01/23 01:04:13;;;;;;;;;;;18.90;42.10;;;;;;6045371;29;19924;-60
2023/01/23 01:07:14;;;;;;;;;;;19.10;42.30;;;;;;6048739;29;19924;-60
2023/01/23 01:10:15;;;;;;;;;;;19.20;42.20;;;;;;6041755;29;20320;-60
2023/01/23 01:13:20;;;;;;;;;;;19.10;42.20;;;;;;6044122;29;19931;-60
2023/01/23 01:16:23;;;;;;;;;;;19.10;42.20;;;;;;6029348;29;19924;-60
2023/01/23 01:19:27;;;;;;;;;;;19.20;42.20;;;;;;6044314;29;19924;-60
2023/01/23 01:22:28;;;;;;;;;;;19.40;42.30;;;;;;6047050;29;19924;-60
2023/01/23 01:25:29;;;;;;;;;;;19.30;42.40;;;;;;6043137;29;19924;-60
2023/01/23 01:28:32;;;;;;;;;;;18.90;42.20;;;;;;6043696;29;20452;-60
2023/01/23 01:31:33;;;;;;;;;;;19.10;42.20;;;;;;6028022;29;19935;-60
2023/01/23 01:34:36;;;;;;;;;;;18.90;42.20;;;;;;6045289;29;20441;-60
2023/01/23 01:37:38;;;;;;;;;;;18.80;42.10;;;;;;6040702;29;19924;-59
2023/01/23 01:40:39;;;;;;;;;;;19.00;42.10;;;;;;6019702;29;19924;-60
2023/01/23 01:43:41;;;;;;;;;;;18.90;42.10;;;;;;6041654;29;19924;-59
2023/01/23 01:46:44;;;;;;;;;;;18.80;41.90;;;;;;6033776;29;19948;-59
2023/01/23 01:49:46;;;;;;;;;;;19.20;42.10;;;;;;6034648;29;20334;-60
2023/01/23 01:52:47;;;;;;;;;;;19.50;42.30;;;;;;6036300;29;19924;-60
2023/01/23 01:55:49;;;;;;;;;;;19.00;42.30;;;;;;6038329;29;19932;-59
2023/01/23 01:58:51;;;;;;;;;;;18.90;42.20;;;;;;6038886;29;19924;-60
2023/01/23 02:01:55;;;;;;;;;;;19.10;42.40;;;;;;6044675;29;19953;-60
2023/01/23 02:04:59;;;;;;;;;;;18.80;42.00;;;;;;6036452;29;19924;-60
2023/01/23 02:08:03;;;;;;;;;;;19.10;42.30;;;;;;6039953;29;19955;-55
2023/01/23 02:11:05;;;;;;;;;;;19.20;42.30;;;;;;6068480;24;19960;-59
2023/01/23 02:14:07;;;;;;;;;;;19.20;42.30;;;;;;6060154;29;19932;-59
2023/01/23 02:17:09;;;;;;;;;;;18.80;42.10;;;;;;6060388;29;19924;-59
2023/01/23 02:20:13;;;;;;;;;;;18.90;42.10;;;;;;6059797;29;19928;-59
2023/01/23 02:23:19;;;;;;;;;;;19.00;42.10;;;;;;6060073;29;19930;-59
2023/01/23 02:26:24;;;;;;;;;;;19.10;42.10;;;;;;6060052;29;19928;-59
2023/01/23 02:29:25;;;;;;;;;;;19.00;42.20;;;;;;6060308;29;19927;-59
2023/01/23 02:32:29;;;;;;;;;;;19.30;42.40;;;;;;6059747;29;20015;-58
2023/01/23 02:35:31;;;;;;;;;;;18.90;42.30;;;;;;6060645;29;19958;-58
2023/01/23 02:38:44;;;;;;;;;;;19.20;42.20;;;;;;6060169;29;19924;-59
2023/01/23 02:41:50;;;;;;;;;;;19.10;42.20;;;;;;6059821;29;19931;-58
2023/01/23 02:44:55;;;;;;;;;;;19.00;42.20;;;;;;6059582;29;19976;-58
2023/01/23 02:47:57;;;;;;;;;;;18.90;42.20;;;;;;6059978;29;19931;-58
2023/01/23 02:50:58;;;;;;;;;;;18.90;42.20;;;;;;6059678;29;19946;-59
2023/01/23 02:54:00;;;;;;;;;;;19.70;42.60;;;;;;6059241;29;19934;-59
2023/01/23 02:57:03;;;;;;;;;;;19.20;42.40;;;;;;6059793;29;19975;-59
2023/01/23 03:03:22;;;;;;;;;;;19.40;42.40;;;;;;6045497;29;19924;-59
2023/01/23 03:06:23;;;;;;;;;;;19.20;42.30;;;;;;6059139;29;20022;-59
2023/01/23 03:09:25;;;;;;;;;;;19.10;42.30;;;;;;6059560;29;19923;-59
2023/01/23 03:12:27;;;;;;;;;;;19.20;42.30;;;;;;6059357;29;19924;-59
2023/01/23 03:15:29;;;;;;;;;;;18.90;42.80;;;;;;6058987;29;19928;-59
2023/01/23 03:18:32;;;;;;;;;;;19.10;42.20;;;;;;6058686;29;19975;-58
2023/01/23 03:21:41;;;;;;;;;;;18.90;42.10;;;;;;6059234;29;19924;-58
2023/01/23 03:24:43;;;;;;;;;;;19.50;42.40;;;;;;6043052;29;19928;-59
2023/01/23 03:27:46;;;;;;;;;;;19.30;42.30;;;;;;6059451;29;19924;-59
2023/01/23 03:30:47;;;;;;;;;;;18.80;42.10;;;;;;6059162;29;19965;-59
2023/01/23 03:33:49;;;;;;;;;;;19.10;42.20;;;;;;6058911;29;20300;-59
2023/01/23 03:36:50;;;;;;;;;;;18.80;42.20;;;;;;6059301;29;19928;-59
2023/01/23 03:43:05;;;;;;;;;;;18.80;42.00;;;;;;6058899;29;19931;-58
2023/01/23 03:46:09;;;;;;;;;;;18.90;42.20;;;;;;6042695;29;19930;-59
2023/01/23 03:49:12;;;;;;;;;;;18.90;42.20;;;;;;6058807;29;19925;-58
2023/01/23 03:52:14;;;;;;;;;;;19.30;42.40;;;;;;6058667;29;19923;-58
2023/01/23 03:55:17;;;;;;;;;;;19.00;42.10;;;;;;6059009;29;19923;-59
2023/01/23 03:58:21;;;;;;;;;;;19.20;42.40;;;;;;6058694;29;19928;-59
2023/01/23 04:01:22;;;;;;;;;;;18.80;42.10;;;;;;6058594;29;19927;-59
2023/01/23 04:04:23;;;;;;;;;;;18.70;42.30;;;;;;6058928;29;19923;-59
2023/01/23 04:07:25;;;;;;;;;;;18.70;42.20;;;;;;6058612;29;20340;-59
2023/01/23 04:10:26;;;;;;;;;;;19.30;42.40;;;;;;6058797;29;20022;-59
2023/01/23 04:13:32;;;;;;;;;;;19.30;42.40;;;;;;6058644;29;20265;-59
2023/01/23 04:16:34;;;;;;;;;;;19.10;42.20;;;;;;6058337;29;19924;-58
2023/01/23 04:19:35;;;;;;;;;;;18.70;42.20;;;;;;6058667;29;20358;-59
2023/01/23 04:22:37;;;;;;;;;;;19.20;42.30;;;;;;6065296;29;19908;-55
2023/01/23 04:25:39;;;;;;;;;;;19.20;42.10;;;;;;6083150;29;20001;-56
2023/01/23 04:28:46;;;;;;;;;;;19.10;42.30;;;;;;6086515;29;19924;-55
2023/01/23 04:31:47;;;;;;;;;;;18.80;42.10;;;;;;6087846;29;19907;-56
2023/01/23 04:34:49;;;;;;;;;;;19.10;42.20;;;;;;6088872;29;19924;-56
2023/01/23 04:37:51;;;;;;;;;;;19.40;42.40;;;;;;6070846;29;19924;-58
2023/01/23 04:40:52;;;;;;;;;;;19.00;42.30;;;;;;6060334;29;19924;-58
2023/01/23 04:43:54;;;;;;;;;;;18.80;42.00;;;;;;6062671;29;19930;-58
2023/01/23 04:46:56;;;;;;;;;;;19.20;42.30;;;;;;6059882;29;20407;-59
2023/01/23 04:49:59;;;;;;;;;;;19.20;42.30;;;;;;6059267;29;19924;-59
2023/01/23 04:53:03;;;;;;;;;;;19.10;42.10;;;;;;6058735;29;19931;-59
2023/01/23 04:56:05;;;;;;;;;;;18.80;41.80;;;;;;6058938;29;19930;-59
2023/01/23 04:59:08;;;;;;;;;;;19.30;42.20;;;;;;6058056;29;19924;-59
2023/01/23 05:02:10;;;;;;;;;;;19.50;42.40;;;;;;6058385;29;19927;-58
2023/01/23 05:05:16;;;;;;;;;;;19.20;42.20;;;;;;6058584;29;20304;-59
2023/01/23 05:08:18;;;;;;;;;;;18.70;41.80;;;;;;6058292;29;19924;-59
2023/01/23 05:11:29;;;;;;;;;;;18.80;41.80;;;;;;6058003;29;19923;-59
2023/01/23 05:14:31;;;;;;;;;;;19.00;41.90;;;;;;6057469;29;19976;-59
2023/01/23 05:17:33;;;;;;;;;;;19.30;42.10;;;;;;6057443;29;19930;-58
2023/01/23 05:20:36;;;;;;;;;;;19.40;42.20;;;;;;6057806;29;19970;-58
2023/01/23 05:23:39;;;;;;;;;;;19.20;42.10;;;;;;6057489;29;19923;-58
2023/01/23 05:26:41;;;;;;;;;;;18.70;41.80;;;;;;6057410;29;19928;-58
2023/01/23 05:29:43;;;;;;;;;;;19.10;42.00;;;;;;6041046;29;19924;-58
2023/01/23 05:32:49;;;;;;;;;;;19.00;42.00;;;;;;6057505;29;19924;-58
2023/01/23 05:35:57;;;;;;;;;;;19.20;42.20;;;;;;6057471;29;19923;-59
2023/01/23 05:38:59;;;;;;;;;;;19.10;41.90;;;;;;6057799;29;19967;-59
2023/01/23 05:42:03;;;;;;;;;;;19.10;42.00;;;;;;6064258;29;19930;-59
2023/01/23 05:45:18;;;;;;;;;;;19.60;42.30;;;;;;6065068;29;19957;-58
2023/01/23 05:48:19;;;;;;;;;;;19.20;42.10;;;;;;6064771;29;20015;-58
2023/01/23 05:51:21;;;;;;;;;;;18.70;42.20;;;;;;6065403;29;19996;-59
2023/01/23 05:54:23;;;;;;;;;;;19.00;42.00;;;;;;6064515;29;20303;-58
2023/01/23 05:57:25;;;;;;;;;;;18.70;41.90;;;;;;6064243;29;19924;-58
2023/01/23 06:00:43;;;;;;;;;;;19.00;42.00;;;;;;6064051;29;19923;-58
2023/01/23 06:04:02;;;;;;;;;;;19.50;42.30;;;;;;6064367;29;20017;-58
2023/01/23 06:07:12;;;;;;;;;;;19.20;42.10;;;;;;6064265;29;19981;-58
2023/01/23 06:10:13;;;;;;;;;;;19.00;41.90;;;;;;6064323;29;19923;-58
2023/01/23 06:13:15;;;;;;;;;;;19.20;42.00;;;;;;6064435;29;19924;-58
2023/01/23 06:16:17;;;;;;;;;;;19.70;42.50;;;;;;6064343;29;19958;-58
2023/01/23 06:19:18;;;;;;;;;;;19.00;42.00;;;;;;6064762;29;19924;-58
2023/01/23 06:22:19;;;;;;;;;;;18.90;42.00;;;;;;6064427;29;20396;-57
2023/01/23 06:25:35;;;;;;;;;;;19.20;42.10;;;;;;6064332;29;20368;-58
2023/01/23 06:28:39;;;;;;;;;;;19.40;42.00;;;;;;6064727;29;19923;-57
2023/01/23 06:31:42;;;;;;;;;;;18.80;42.00;;;;;;6064304;29;19962;-58
2023/01/23 06:34:43;;;;;;;;;;;18.80;41.90;;;;;;6064273;29;20045;-57
2023/01/23 06:37:45;;;;;;;;;;;19.10;42.10;;;;;;6064424;29;19924;-57
2023/01/23 06:40:50;;;;;;;;;;;18.80;42.00;;;;;;6064620;29;19931;-58
2023/01/23 06:44:02;;;;;;;;;;;19.10;42.10;;;;;;6064343;29;19923;-57
2023/01/23 06:47:05;;;;;;;;;;;19.40;42.30;;;;;;6064398;29;20014;-57
2023/01/23 06:50:08;;;;;;;;;;;19.20;42.10;;;;;;6047864;29;20396;-56
2023/01/23 06:53:13;;;;;;;;;;;19.20;42.00;;;;;;6061244;29;19966;-58
2023/01/23 06:56:15;;;;;;;;;;;18.90;41.90;;;;;;6060502;29;19924;-57
2023/01/23 06:59:16;;;;;;;;;;;19.60;42.30;;;;;;6060616;29;19931;-58
2023/01/23 07:02:18;;;;;;;;;;;19.10;42.00;;;;;;6060616;29;19972;-58
2023/01/23 07:05:23;;;;;;;;;;;19.40;42.30;;;;;;6060355;29;20304;-58
2023/01/23 07:08:24;;;;;;;;;;;18.90;41.90;;;;;;6060784;29;19956;-58
2023/01/23 07:11:27;;;;;;;;;;;19.30;42.30;;;;;;6059765;29;19923;-58
2023/01/23 07:14:30;;;;;;;;;;;19.10;41.80;;;;;;6059078;29;19928;-58
2023/01/23 07:17:33;;;;;;;;;;;19.10;41.90;;;;;;6060266;29;19975;-58
2023/01/23 07:20:35;;;;;;;;;;;19.30;42.30;;;;;;6059667;29;19924;-58
2023/01/23 07:23:36;;;;;;;;;;;19.00;42.20;;;;;;6060330;29;19924;-58
2023/01/23 07:26:38;;;;;;;;;;;19.10;41.90;;;;;;6059780;29;20364;-58
2023/01/23 07:29:39;;;;;;;;;;;19.40;42.10;;;;;;6059889;29;19924;-58
2023/01/23 07:32:41;;;;;;;;;;;19.10;41.70;;;;;;6059442;29;19982;-58
2023/01/23 07:35:43;;;;;;;;;;;19.30;41.70;;;;;;6060440;29;19924;-58
2023/01/23 07:38:44;;;;;;;;;;;19.00;41.60;;;;;;6059152;29;19964;-57
2023/01/23 07:41:45;;;;;;;;;;;19.40;42.20;;;;;;6058808;29;19924;-58
2023/01/23 07:44:48;;;;;;;;;;;19.00;41.30;;;;;;6058843;29;20340;-58
2023/01/23 07:47:50;;;;;;;;;;;19.60;41.70;;;;;;6058745;29;19924;-57
2023/01/23 07:50:51;;;;;;;;;;;18.90;41.40;;;;;;6058758;29;20019;-58
2023/01/23 07:53:52;;;;;;;;;;;19.50;41.60;;;;;;6058371;29;19924;-57
2023/01/23 07:56:54;;;;;;;;;;;19.30;41.20;;;;;;6059434;29;19923;-57
2023/01/23 07:59:56;;;;;;;;;;;19.60;41.60;;;;;;6059594;29;19923;-59
2023/01/23 08:02:58;;;;;;;;;;;19.10;41.30;;;;;;6058007;29;19924;-59
2023/01/23 08:05:59;;;;;;;;;;;19.50;41.50;;;;;;6057732;29;19923;-59
2023/01/23 08:09:01;;;;;;;;;;;19.20;41.30;;;;;;6042716;29;20004;-59
2023/01/23 08:12:02;;;;;;;;;;;19.90;41.60;;;;;;6059351;29;20325;-59
2023/01/23 08:15:04;;;;;;;;;;;19.30;41.00;;;;;;6061058;29;19924;-59
2023/01/23 08:18:06;;;;;;;;;;;19.60;41.20;;;;;;6066287;29;19908;-59
2023/01/23 08:21:08;;;;;;;;;;;19.60;41.30;;;;;;6065506;29;19948;-57
2023/01/23 08:24:10;;;;;;;;;;;19.60;41.00;;;;;;6061549;29;19935;-57
2023/01/23 08:27:12;;;;;;;;;;;19.40;41.00;;;;;;6061486;29;20017;-56
2023/01/23 08:30:14;;;;;;;;;;;19.00;40.60;;;;;;6062026;29;19976;-58
2023/01/23 08:33:16;;;;;;;;;;;19.20;40.30;;;;;;6057389;29;19931;-58
2023/01/23 08:36:18;;;;;;;;;;;19.60;40.80;;;;;;6066067;29;19924;-52
2023/01/23 08:39:20;;;;;;;;;;;19.60;41.10;;;;;;6062031;29;19938;-58
2023/01/23 08:42:21;;;;;;;;;;;19.60;40.90;;;;;;6063938;29;19931;-59
2023/01/23 08:45:24;;;;;;;;;;;19.50;40.60;;;;;;6074568;29;19969;-58
2023/01/23 08:51:58;;;;;;;;;;;19.50;38.30;;;;;;6420967;23;19924;-56
2023/01/23 08:58:24;;;;;;;;;;;19.10;37.70;;;;;;6650499;23;19995;-55
2023/01/23 09:01:26;;;;;;;;;;;19.90;41.10;;;;;;6463496;23;19916;-56
2023/01/23 09:04:27;;;;;;;;;;;19.70;39.50;;;;;;6062335;29;20004;-57
2023/01/23 09:07:29;;;;;;;;;;;19.90;40.90;;;;;;6053115;29;19936;-57
2023/01/23 09:10:31;;;;;;;;;;;19.80;40.80;;;;;;6042603;29;19931;-58
2023/01/23 09:13:32;;;;;;;;;;;19.60;40.10;;;;;;6482104;24;19911;-56
2023/01/23 09:16:34;;;;;;;;;;;19.90;40.60;;;;;;6085838;29;19924;-56
2023/01/23 09:33:33;;;;;;;;;;;20.00;37.80;;;;;;6681515;23;19974;-59
2023/01/23 09:36:34;;;;;;;;;;;19.90;40.50;;;;;;6088803;24;19947;-58
2023/01/23 09:43:12;;;;;;;;;;;20.00;37.80;;;;;;6463547;23;19924;-57
2023/01/23 09:46:17;;;;;;;;;;;19.90;40.20;;;;;;6045747;29;19928;-60
2023/01/23 09:49:23;;;;;;;;;;;20.80;40.80;;;;;;6047268;29;19924;-58
2023/01/23 09:56:27;;;;;;;;;;;20.20;38.10;;;;;;5990533;29;19932;-58
2023/01/23 09:59:33;;;;;;;;;;;20.20;40.00;;;;;;5997552;29;19925;-58
2023/01/23 10:02:34;;;;;;;;;;;20.00;39.60;;;;;;5995475;29;19925;-57
2023/01/23 10:05:41;;;;;;;;;;;19.80;40.00;;;;;;6075016;24;19930;-58
2023/01/23 10:08:46;;;;;;;;;;;20.50;40.40;;;;;;6037591;29;19928;-58
2023/01/23 10:11:52;;;;;;;;;;;20.50;40.10;;;;;;6039222;29;20018;-57
2023/01/23 10:15:02;;;;;;;;;;;20.80;40.40;;;;;;6045567;29;19908;-57
2023/01/23 10:21:17;;;;;;;;;;;20.70;37.20;;;;;;6001468;29;19936;-59
2023/01/23 10:24:25;;;;;;;;;;;21.00;40.20;;;;;;5999435;29;19977;-60
2023/01/23 10:30:52;;;;;;;;;;;20.60;37.20;;;;;;6145959;23;19965;-61
2023/01/23 10:33:57;;;;;;;;;;;20.40;37.00;;;;;;6280987;24;20344;-57
2023/01/23 10:37:10;;;;;;;;;;;20.60;38.60;;;;;;6418825;23;19940;-57
2023/01/23 10:40:13;;;;;;;;;;;20.50;39.80;;;;;;6046693;29;19908;-58
2023/01/23 10:43:15;;;;;;;;;;;20.60;39.40;;;;;;6024531;29;20027;-57
2023/01/23 10:46:18;;;;;;;;;;;20.70;40.00;;;;;;6033920;29;19912;-57
2023/01/23 10:49:28;;;;;;;;;;;20.60;39.80;;;;;;6041766;29;19928;-57
2023/01/23 10:52:33;;;;;;;;;;;20.50;38.30;;;;;;6046834;29;19924;-58
2023/01/23 10:55:34;;;;;;;;;;;20.60;39.70;;;;;;6624883;23;19924;-63
2023/01/23 10:58:36;;;;;;;;;;;21.80;40.60;;;;;;6048423;29;19935;-60
2023/01/23 11:01:37;;;;;;;;;;;20.50;39.70;;;;;;6051231;29;19919;-59
2023/01/23 11:04:43;;;;;;;;;;;20.70;39.50;;;;;;6299259;23;20030;-59
2023/01/23 11:07:52;;;;;;;;;;;20.10;40.20;;;;;;6023760;29;19924;-59
2023/01/23 11:11:15;;;;;;;;;;;20.50;39.80;;;;;;6043053;29;19931;-58
2023/01/23 11:14:22;;;;;;;;;;;20.60;40.00;;;;;;6021434;29;19924;-58
2023/01/23 11:17:31;;;;;;;;;;;21.00;40.10;;;;;;6037617;29;20453;-59
2023/01/23 11:20:34;;;;;;;;;;;20.60;40.00;;;;;;6036600;29;19931;-63
2023/01/23 11:23:37;;;;;;;;;;;20.90;39.90;;;;;;6022964;29;19980;-58
2023/01/23 11:26:38;;;;;;;;;;;20.60;40.00;;;;;;6048690;29;19970;-59
2023/01/23 11:29:48;;;;;;;;;;;20.70;40.10;;;;;;6048659;29;19924;-59
2023/01/23 11:32:54;;;;;;;;;;;20.60;39.80;;;;;;6035344;29;19928;-58
2023/01/23 11:35:59;;;;;;;;;;;21.10;40.00;;;;;;6035874;29;20015;-55
2023/01/23 11:39:06;;;;;;;;;;;20.50;39.70;;;;;;6035429;29;20392;-57
2023/01/23 11:42:10;;;;;;;;;;;21.20;40.30;;;;;;6035196;29;19980;-56
2023/01/23 11:45:13;;;;;;;;;;;20.80;40.10;;;;;;6045137;29;19944;-58
2023/01/23 11:48:22;;;;;;;;;;;21.00;40.10;;;;;;6057137;29;19970;-57
2023/01/23 11:51:25;;;;;;;;;;;20.90;40.40;;;;;;6057277;29;19949;-58
2023/01/23 11:54:42;;;;;;;;;;;21.20;40.30;;;;;;6028449;29;19924;-57
2023/01/23 11:57:52;;;;;;;;;;;20.70;39.90;;;;;;6044376;29;19931;-58
2023/01/23 12:00:58;;;;;;;;;;;20.80;40.10;;;;;;6038237;29;20310;-58
2023/01/23 12:04:12;;;;;;;;;;;20.80;40.00;;;;;;6044827;29;19931;-59
2023/01/23 12:07:16;;;;;;;;;;;20.90;40.00;;;;;;6035567;29;19931;-58
2023/01/23 12:10:23;;;;;;;;;;;20.80;39.90;;;;;;6041268;29;19931;-59
2023/01/23 12:13:34;;;;;;;;;;;20.60;39.60;;;;;;6040301;29;20016;-59
2023/01/23 12:16:44;;;;;;;;;;;20.90;40.00;;;;;;6024022;29;19924;-59
2023/01/23 12:19:55;;;;;;;;;;;21.00;40.10;;;;;;6045481;29;20052;-58
2023/01/23 12:23:04;;;;;;;;;;;20.90;39.90;;;;;;6054847;29;19924;-58
2023/01/23 12:26:12;;;;;;;;;;;21.30;40.10;;;;;;6050595;29;19934;-58
2023/01/23 12:46:35;;;;;;;;;;;20.90;37.10;;;;;;6180427;23;19928;-58
2023/01/23 12:49:38;;;;;;;;;;;21.00;37.20;;;;;;6054564;29;19927;-58
2023/01/23 12:52:42;;;;;;;;;;;20.90;39.80;;;;;;6044835;29;19924;-58
2023/01/23 12:55:49;;;;;;;;;;;21.40;40.20;;;;;;6044625;29;19939;-57
2023/01/23 12:58:54;;;;;;;;;;;20.90;39.80;;;;;;6045728;29;19931;-59
2023/01/23 13:02:02;;;;;;;;;;;21.20;40.10;;;;;;6046450;29;19972;-57
2023/01/23 13:05:09;;;;;;;;;;;20.80;39.90;;;;;;6059569;29;19975;-58
2023/01/23 13:22:22;;;;;;;;;;;20.70;37.50;;;;;;7222811;23;20003;-57
2023/01/23 15:28:32;;;;;;;;;;;20.60;37.50;;;;;;6843884;23;19908;-51
2023/01/23 15:35:15;;;;;;;;;;;20.50;37.70;;;;;;7049826;23;19924;-55
2023/01/23 15:38:16;;;;;;;;;;;20.10;40.00;;;;;;6067723;29;19915;-53
2023/01/23 15:41:18;;;;;;;;;;;21.10;40.60;;;;;;6502704;24;19908;-55
2023/01/23 15:44:36;;;;;;;;;;;20.90;39.40;;;;;;6162147;23;20857;-54
2023/01/23 15:51:02;;;;;;;;;;;20.60;37.80;;;;;;6058357;29;19924;-57
2023/01/23 15:54:04;;;;;;;;;;;20.70;40.30;;;;;;6059630;29;19915;-57
2023/01/23 15:57:06;;;;;;;;;;;21.00;40.50;;;;;;6164503;24;19938;-54
2023/01/23 16:00:14;;;;;;;;;;;20.80;38.90;;;;;;6120675;23;19940;-58
2023/01/23 16:06:43;;;;;;;;;;;20.70;38.50;;;;;;6227883;24;19924;-57
2023/01/23 16:16:40;;;;;;;;;;;17.50;35.70;;;;;;6810527;23;19959;-56
2023/01/23 16:19:42;;;;;;;;;;;20.90;37.50;;;;;;6054536;29;19944;-58
2023/01/23 16:22:43;;;;;;;;;;;20.80;40.10;;;;;;6927753;24;19911;-57
2023/01/23 16:25:45;;;;;;;;;;;21.00;40.60;;;;;;6062989;29;19973;-58
2023/01/23 16:28:48;;;;;;;;;;;20.90;40.60;;;;;;6058841;29;19987;-58
2023/01/23 16:31:49;;;;;;;;;;;21.10;40.50;;;;;;6067423;29;19919;-58
2023/01/23 16:34:51;;;;;;;;;;;20.80;40.40;;;;;;6057946;29;20300;-57
2023/01/23 16:37:53;;;;;;;;;;;21.20;40.80;;;;;;6058392;29;19923;-58
2023/01/23 16:40:55;;;;;;;;;;;20.80;40.20;;;;;;6059105;29;19944;-57
2023/01/23 16:43:56;;;;;;;;;;;21.30;40.60;;;;;;6058027;29;20285;-58
2023/01/23 16:46:58;;;;;;;;;;;20.60;40.00;;;;;;6058948;29;19924;-57
2023/01/23 16:49:59;;;;;;;;;;;21.00;40.50;;;;;;6058123;29;19931;-56
2023/01/23 16:53:02;;;;;;;;;;;21.00;40.80;;;;;;6062449;29;20329;-56
2023/01/23 16:56:05;;;;;;;;;;;21.30;40.60;;;;;;6067466;29;19923;-56
2023/01/23 16:59:07;;;;;;;;;;;20.60;40.10;;;;;;6063549;29;19943;-57
2023/01/23 17:02:16;;;;;;;;;;;20.90;40.30;;;;;;6080071;29;19952;-57
2023/01/23 17:05:17;;;;;;;;;;;20.60;40.10;;;;;;6071113;29;19923;-57
2023/01/23 17:08:19;;;;;;;;;;;21.20;40.60;;;;;;6072681;29;19928;-57
2023/01/23 17:11:23;;;;;;;;;;;20.70;40.10;;;;;;6061728;29;20241;-58
2023/01/23 17:14:27;;;;;;;;;;;20.90;40.20;;;;;;6061031;29;19924;-58
2023/01/23 17:17:31;;;;;;;;;;;20.70;40.20;;;;;;6061411;29;19923;-58
2023/01/23 17:23:57;;;;;;;;;;;20.80;37.50;;;;;;5969356;29;19950;-58
2023/01/23 17:26:59;;;;;;;;;;;20.80;40.30;;;;;;6166997;24;19924;-59
2023/01/23 17:30:00;;;;;;;;;;;20.90;40.40;;;;;;6061986;29;19924;-60
2023/01/23 17:33:03;;;;;;;;;;;20.80;40.40;;;;;;6065206;29;20352;-61
2023/01/23 17:36:06;;;;;;;;;;;20.80;40.40;;;;;;6074431;29;19935;-60
2023/01/23 17:39:08;;;;;;;;;;;20.70;40.20;;;;;;6071607;29;19924;-60
2023/01/23 17:42:11;;;;;;;;;;;20.90;40.30;;;;;;6066591;29;20372;-62
2023/01/23 17:45:13;;;;;;;;;;;20.80;40.30;;;;;;6060415;29;19928;-60
2023/01/23 17:48:16;;;;;;;;;;;21.00;39.80;;;;;;6060714;29;19928;-60
2023/01/23 17:51:18;;;;;;;;;;;20.90;40.40;;;;;;6063194;29;20281;-61
2023/01/23 17:54:19;;;;;;;;;;;21.20;40.60;;;;;;6061593;29;19924;-61
2023/01/23 17:57:21;;;;;;;;;;;20.80;40.50;;;;;;6060675;29;19927;-60
2023/01/23 18:00:22;;;;;;;;;;;21.00;40.50;;;;;;6060861;29;19923;-61
2023/01/23 18:03:25;;;;;;;;;;;20.50;40.30;;;;;;6065165;29;19927;-60
2023/01/23 18:06:26;;;;;;;;;;;21.00;40.60;;;;;;6066033;29;19924;-61
2023/01/23 18:09:33;;;;;;;;;;;20.40;40.50;;;;;;6062425;29;19924;-60
2023/01/23 18:12:38;;;;;;;;;;;21.10;40.70;;;;;;6064460;29;19980;-60
2023/01/23 18:15:42;;;;;;;;;;;20.70;40.50;;;;;;6071732;29;19923;-60
2023/01/23 18:18:51;;;;;;;;;;;20.90;40.50;;;;;;6045744;29;19932;-61
2023/01/23 18:21:54;;;;;;;;;;;20.70;40.50;;;;;;6064651;29;19924;-61
2023/01/23 18:24:55;;;;;;;;;;;21.00;40.60;;;;;;6068560;29;19924;-59
2023/01/23 18:28:00;;;;;;;;;;;20.50;40.40;;;;;;6069128;29;19924;-59
2023/01/23 18:31:03;;;;;;;;;;;20.90;40.70;;;;;;6067764;29;19924;-61
2023/01/23 18:34:10;;;;;;;;;;;20.60;40.40;;;;;;6066308;29;19927;-61
2023/01/23 18:37:15;;;;;;;;;;;20.90;40.70;;;;;;6063193;29;19931;-60
2023/01/23 18:40:20;;;;;;;;;;;20.30;40.40;;;;;;6062713;29;19975;-62
2023/01/23 18:43:32;;;;;;;;;;;20.70;40.60;;;;;;6068745;29;19924;-60
2023/01/23 18:46:34;;;;;;;;;;;20.30;40.40;;;;;;6046653;29;19931;-60
2023/01/23 18:49:36;;;;;;;;;;;20.90;40.90;;;;;;6066776;29;19927;-60
2023/01/23 18:52:41;;;;;;;;;;;20.10;40.50;;;;;;6066582;29;19924;-60
2023/01/23 18:55:45;;;;;;;;;;;21.00;41.00;;;;;;6067969;29;19924;-60
2023/01/23 18:58:52;;;;;;;;;;;20.30;40.50;;;;;;6067734;29;19930;-60
2023/01/23 19:02:14;;;;;;;;;;;20.80;40.90;;;;;;6066857;29;19924;-60
2023/01/23 19:05:27;;;;;;;;;;;20.20;40.60;;;;;;6066889;29;19927;-60
2023/01/23 19:08:30;;;;;;;;;;;20.60;40.90;;;;;;6050678;29;19924;-60
2023/01/23 19:11:35;;;;;;;;;;;20.30;40.60;;;;;;6066255;29;19924;-60
2023/01/23 19:14:43;;;;;;;;;;;20.70;40.90;;;;;;6050954;29;19930;-60
2023/01/23 19:17:46;;;;;;;;;;;20.00;40.60;;;;;;6067418;29;19927;-60
2023/01/23 19:20:49;;;;;;;;;;;20.80;41.10;;;;;;6066317;29;19924;-60
2023/01/23 19:23:54;;;;;;;;;;;20.30;40.80;;;;;;6067518;29;19931;-60
2023/01/23 19:26:55;;;;;;;;;;;20.60;40.90;;;;;;6067501;29;19923;-60
2023/01/23 19:29:58;;;;;;;;;;;20.40;40.90;;;;;;6068334;29;20303;-60
2023/01/23 19:33:00;;;;;;;;;;;20.30;40.80;;;;;;6067590;29;19979;-60
2023/01/23 19:36:03;;;;;;;;;;;20.40;41.00;;;;;;6067302;29;19923;-59
2023/01/23 19:39:05;;;;;;;;;;;20.40;41.10;;;;;;6070399;29;20388;-60
2023/01/23 19:42:12;;;;;;;;;;;19.90;40.70;;;;;;6068545;29;19927;-60
2023/01/23 19:45:14;;;;;;;;;;;20.70;41.20;;;;;;6066352;29;19924;-60
2023/01/23 19:48:16;;;;;;;;;;;20.10;40.80;;;;;;6052739;29;19924;-59
2023/01/23 19:51:18;;;;;;;;;;;20.70;41.30;;;;;;6066567;29;19924;-60
2023/01/23 19:54:20;;;;;;;;;;;20.10;41.00;;;;;;6065368;29;19924;-60
2023/01/23 19:57:24;;;;;;;;;;;20.40;41.10;;;;;;6064930;29;19928;-60
2023/01/23 20:00:28;;;;;;;;;;;20.20;40.90;;;;;;6061289;29;19924;-60
2023/01/23 20:03:29;;;;;;;;;;;20.40;41.20;;;;;;6045026;29;19928;-60
2023/01/23 20:06:33;;;;;;;;;;;20.30;41.00;;;;;;6062004;29;19924;-60
2023/01/23 20:09:34;;;;;;;;;;;20.60;41.30;;;;;;6058307;29;19928;-60
2023/01/23 20:12:41;;;;;;;;;;;20.20;41.00;;;;;;6059092;29;19923;-60
2023/01/23 20:15:42;;;;;;;;;;;20.30;41.10;;;;;;6058165;29;19930;-60
2023/01/23 20:18:45;;;;;;;;;;;20.00;41.10;;;;;;6058420;29;19924;-59
2023/01/23 20:21:47;;;;;;;;;;;20.30;40.80;;;;;;6059334;29;19924;-59
2023/01/23 20:24:49;;;;;;;;;;;19.80;40.90;;;;;;6043145;29;19923;-59
2023/01/23 20:27:51;;;;;;;;;;;20.40;41.50;;;;;;6059790;29;19923;-59
2023/01/23 20:30:52;;;;;;;;;;;19.90;40.90;;;;;;6067167;29;19924;-60
2023/01/23 20:33:54;;;;;;;;;;;20.40;41.40;;;;;;6068589;29;20440;-59
2023/01/23 20:36:56;;;;;;;;;;;20.30;41.10;;;;;;6056520;29;19923;-59
2023/01/23 20:39:58;;;;;;;;;;;20.50;41.40;;;;;;6071959;29;19924;-59
2023/01/23 20:42:59;;;;;;;;;;;20.00;41.40;;;;;;6070590;29;20072;-59
2023/01/23 20:46:03;;;;;;;;;;;20.10;41.40;;;;;;6068495;29;19931;-59
2023/01/23 20:49:04;;;;;;;;;;;20.10;41.20;;;;;;6048904;29;19935;-60
2023/01/23 20:55:19;;;;;;;;;;;20.10;41.30;;;;;;6072066;29;19931;-59
2023/01/23 21:04:53;;;;;;;;;;;20.10;41.30;;;;;;6044276;29;19923;-60
2023/01/23 21:07:55;;;;;;;;;;;20.00;41.40;;;;;;6075955;29;19927;-61
2023/01/23 21:10:57;;;;;;;;;;;20.40;41.50;;;;;;6076200;29;19924;-60
2023/01/23 21:13:59;;;;;;;;;;;20.00;41.50;;;;;;6072958;29;19928;-60
2023/01/23 21:17:03;;;;;;;;;;;19.70;41.20;;;;;;6070514;29;19924;-60
2023/01/23 21:20:06;;;;;;;;;;;20.00;41.40;;;;;;6068383;29;19984;-60
2023/01/23 21:23:08;;;;;;;;;;;20.00;40.90;;;;;;6068619;29;19935;-60
2023/01/23 21:26:09;;;;;;;;;;;19.90;41.30;;;;;;6071649;29;19931;-60
2023/01/23 21:29:10;;;;;;;;;;;19.60;41.20;;;;;;6061960;29;19967;-60
2023/01/23 21:32:11;;;;;;;;;;;20.00;41.30;;;;;;6068905;29;19931;-59